Time;durP1;ratioP1;P1;durP2;ratioP2;P2;SDS_P1;SDS_P2;PMS_P1;PMS_P2;Temp;Humidity;BMP_temperature;BMP_pressure;BME280_temperature;BME280_humidity;BME280_pressure;Samples;Min_cycle;Max_cycle;Signal;HPM_P1;HPM_P2
2022/04/08 00:02:15;;;;;;;5.80;1.50;;;7.40;99.90;;;;;;5218567;28;20186;-48
2022/04/08 00:04:45;;;;;;;2.97;1.10;;;7.40;99.90;;;;;;5218170;28;20187;-49
2022/04/08 00:07:16;;;;;;;4.47;1.03;;;7.40;99.90;;;;;;5215292;28;20211;-47
2022/04/08 00:09:47;;;;;;;2.33;1.00;;;7.40;99.90;;;;;;5221114;28;20298;-47
2022/04/08 00:12:17;;;;;;;2.60;1.53;;;7.40;99.90;;;;;;5214617;28;20189;-47
2022/04/08 00:14:48;;;;;;;1.70;0.70;;;7.50;99.90;;;;;;5196949;28;20182;-47
2022/04/08 00:17:19;;;;;;;8.23;1.07;;;7.60;99.90;;;;;;5218434;28;20182;-47
2022/04/08 00:19:49;;;;;;;2.93;1.27;;;7.50;99.90;;;;;;5185982;28;20599;-48
2022/04/08 00:22:21;;;;;;;1.20;1.20;;;7.50;99.90;;;;;;5206213;28;20178;-48
2022/04/08 00:24:51;;;;;;;8.13;1.33;;;7.60;99.90;;;;;;5202295;28;20190;-47
2022/04/08 00:27:21;;;;;;;1.80;1.20;;;7.50;99.90;;;;;;5220838;28;20846;-49
2022/04/08 00:29:52;;;;;;;3.17;1.00;;;7.50;99.90;;;;;;5208690;28;20237;-48
2022/04/08 00:32:24;;;;;;;0.90;0.90;;;7.50;99.90;;;;;;5208290;28;20191;-47
2022/04/08 00:34:54;;;;;;;1.50;1.03;;;7.50;99.90;;;;;;5188564;28;20175;-47
2022/04/08 00:37:25;;;;;;;4.47;1.10;;;7.50;99.90;;;;;;5224556;28;20455;-46
2022/04/08 00:39:56;;;;;;;1.90;1.00;;;7.40;99.90;;;;;;5215798;28;20282;-47
2022/04/08 00:42:26;;;;;;;2.80;1.30;;;7.30;99.90;;;;;;5211046;28;20199;-51
2022/04/08 00:44:57;;;;;;;5.70;1.47;;;7.30;99.90;;;;;;5208238;28;20190;-48
2022/04/08 00:47:28;;;;;;;4.10;1.40;;;7.10;99.90;;;;;;5216119;28;20647;-47
2022/04/08 00:49:58;;;;;;;2.17;1.53;;;7.00;99.90;;;;;;5220775;28;20547;-47
2022/04/08 00:52:31;;;;;;;3.90;1.80;;;6.80;99.90;;;;;;5218268;28;20516;-46
2022/04/08 00:55:03;;;;;;;8.53;1.93;;;6.80;99.90;;;;;;5200488;28;20187;-47
2022/04/08 00:57:34;;;;;;;4.90;1.60;;;6.80;99.90;;;;;;5222534;28;20479;-46
2022/04/08 01:00:09;;;;;;;3.90;1.80;;;6.70;99.90;;;;;;5202197;28;20462;-48
2022/04/08 01:02:40;;;;;;;1.27;1.27;;;6.80;99.90;;;;;;5202508;28;20183;-46
2022/04/08 01:05:10;;;;;;;1.53;1.00;;;6.70;99.90;;;;;;5222640;28;20451;-48
2022/04/08 01:07:41;;;;;;;1.80;1.27;;;6.70;99.90;;;;;;5225111;28;20178;-47
2022/04/08 01:10:11;;;;;;;4.83;1.53;;;6.70;99.90;;;;;;5209302;28;20197;-48
2022/04/08 01:12:42;;;;;;;7.07;1.43;;;6.70;99.90;;;;;;5223098;28;20497;-47
2022/04/08 01:15:13;;;;;;;3.23;0.93;;;6.70;99.90;;;;;;5206800;28;20657;-48
2022/04/08 01:17:44;;;;;;;4.47;1.50;;;6.70;99.90;;;;;;5225063;28;20178;-47
2022/04/08 01:20:15;;;;;;;3.80;1.00;;;6.70;99.90;;;;;;5220157;28;20472;-48
2022/04/08 01:22:46;;;;;;;0.90;0.90;;;6.70;99.90;;;;;;5211878;28;20178;-51
2022/04/08 01:25:16;;;;;;;4.27;0.87;;;6.70;99.90;;;;;;5225983;28;20490;-47
2022/04/08 01:27:47;;;;;;;4.00;0.73;;;6.60;99.90;;;;;;5226527;28;20181;-48
2022/04/08 01:30:18;;;;;;;2.60;0.50;;;6.70;99.90;;;;;;5222735;28;20210;-47
2022/04/08 01:32:48;;;;;;;0.97;0.70;;;6.80;99.90;;;;;;5217220;28;20197;-49
2022/04/08 01:35:19;;;;;;;2.53;0.90;;;6.80;99.90;;;;;;5220133;28;20663;-47
2022/04/08 01:37:49;;;;;;;1.03;0.60;;;6.80;99.90;;;;;;5223762;28;20183;-48
2022/04/08 01:40:20;;;;;;;3.70;1.17;;;6.80;99.90;;;;;;5221755;28;20214;-48
2022/04/08 01:42:50;;;;;;;0.80;0.70;;;6.90;99.90;;;;;;5206147;28;20655;-50
2022/04/08 01:45:21;;;;;;;1.27;0.70;;;6.90;99.90;;;;;;5218188;28;20195;-50
2022/04/08 01:47:51;;;;;;;4.93;1.20;;;7.00;99.90;;;;;;5223088;28;20174;-49
2022/04/08 01:50:22;;;;;;;2.93;0.80;;;7.00;99.90;;;;;;5203322;28;20205;-49
2022/04/08 01:52:52;;;;;;;0.50;0.50;;;7.00;99.90;;;;;;5221179;28;20685;-49
2022/04/08 01:55:23;;;;;;;0.93;0.70;;;7.00;99.90;;;;;;5224432;28;20213;-47
2022/04/08 01:57:53;;;;;;;0.90;0.77;;;7.00;99.90;;;;;;5225439;28;20186;-46
2022/04/08 02:00:24;;;;;;;1.67;1.00;;;6.90;99.90;;;;;;5206037;28;20202;-51
2022/04/08 02:02:55;;;;;;;1.57;0.60;;;7.00;99.90;;;;;;5216363;28;20206;-49
2022/04/08 02:05:25;;;;;;;8.80;0.77;;;6.90;99.90;;;;;;5203381;28;20280;-52
2022/04/08 02:07:55;;;;;;;1.33;0.90;;;7.00;99.90;;;;;;5223235;28;20288;-49
2022/04/08 02:10:27;;;;;;;2.30;0.70;;;7.00;99.90;;;;;;5221058;28;20260;-49
2022/04/08 02:12:58;;;;;;;1.90;0.60;;;7.00;99.90;;;;;;5203696;28;20801;-48
2022/04/08 02:15:33;;;;;;;3.40;0.77;;;7.00;99.90;;;;;;5198546;28;20437;-48
2022/04/08 02:18:04;;;;;;;1.20;1.17;;;7.10;99.90;;;;;;5205046;28;20185;-49
2022/04/08 02:20:35;;;;;;;1.57;0.67;;;7.10;99.90;;;;;;5221941;28;20465;-49
2022/04/08 02:23:06;;;;;;;1.33;0.70;;;7.10;99.90;;;;;;5202865;28;20512;-47
2022/04/08 02:25:36;;;;;;;1.40;0.90;;;7.00;99.90;;;;;;5224402;28;20210;-52
2022/04/08 02:28:07;;;;;;;0.93;0.90;;;7.10;99.90;;;;;;5223845;28;20182;-48
2022/04/08 02:30:37;;;;;;;2.20;0.80;;;7.10;99.90;;;;;;5224529;28;20211;-48
2022/04/08 02:33:08;;;;;;;2.70;1.10;;;7.10;99.90;;;;;;5216894;28;20244;-49
2022/04/08 02:35:39;;;;;;;3.33;0.57;;;7.10;99.90;;;;;;5216206;28;20180;-47
2022/04/08 02:38:09;;;;;;;0.60;0.60;;;7.10;99.90;;;;;;5216008;28;20594;-47
2022/04/08 02:40:40;;;;;;;1.20;0.83;;;7.10;99.90;;;;;;5211010;28;20697;-49
2022/04/08 02:43:10;;;;;;;4.00;0.83;;;7.10;99.90;;;;;;5217468;28;20254;-52
2022/04/08 02:45:41;;;;;;;2.83;0.90;;;7.10;99.90;;;;;;5208401;28;20670;-50
2022/04/08 02:48:14;;;;;;;1.20;0.93;;;7.10;99.90;;;;;;5195583;28;20324;-47
2022/04/08 02:50:45;;;;;;;1.30;0.77;;;7.10;99.90;;;;;;5216156;28;20595;-48
2022/04/08 02:53:16;;;;;;;3.73;0.53;;;7.10;99.90;;;;;;5222670;28;20520;-48
2022/04/08 02:55:46;;;;;;;2.30;0.90;;;7.10;99.90;;;;;;5189979;28;20422;-48
2022/04/08 02:58:17;;;;;;;6.23;0.97;;;7.10;99.90;;;;;;5222609;28;20189;-47
2022/04/08 03:00:47;;;;;;;1.70;1.20;;;7.10;99.90;;;;;;5208175;28;20210;-49
2022/04/08 03:03:18;;;;;;;2.47;0.73;;;7.20;99.90;;;;;;5222519;28;20246;-48
2022/04/08 03:05:48;;;;;;;0.80;0.70;;;7.20;99.90;;;;;;5218759;28;20207;-48
2022/04/08 03:08:19;;;;;;;5.50;1.30;;;7.30;99.90;;;;;;5206089;28;20177;-48
2022/04/08 03:10:50;;;;;;;1.63;0.90;;;7.20;99.90;;;;;;5217705;28;20203;-47
2022/04/08 03:13:21;;;;;;;3.60;1.07;;;7.20;99.90;;;;;;5206532;28;20438;-48
2022/04/08 03:15:52;;;;;;;0.50;0.50;;;7.30;99.90;;;;;;5224570;28;20576;-47
2022/04/08 03:18:23;;;;;;;1.07;0.87;;;7.30;99.90;;;;;;5219400;28;20186;-49
2022/04/08 03:20:53;;;;;;;5.10;1.00;;;7.20;99.90;;;;;;5194862;23;20502;-50
2022/04/08 03:23:24;;;;;;;5.90;0.90;;;7.20;99.90;;;;;;5199754;28;20179;-52
2022/04/08 03:25:54;;;;;;;2.50;0.87;;;7.20;99.90;;;;;;5197686;28;20205;-51
2022/04/08 03:28:25;;;;;;;1.90;0.70;;;7.20;99.90;;;;;;5193983;28;20187;-50
2022/04/08 03:30:56;;;;;;;3.10;1.37;;;7.20;99.90;;;;;;5196215;28;20200;-50
2022/04/08 03:33:26;;;;;;;1.27;1.03;;;7.20;99.90;;;;;;5185159;28;20184;-50
2022/04/08 03:35:57;;;;;;;1.13;0.83;;;7.30;99.90;;;;;;5202697;28;20186;-50
2022/04/08 03:38:27;;;;;;;1.00;0.60;;;7.30;99.90;;;;;;5183915;28;20210;-51
2022/04/08 03:40:57;;;;;;;4.13;1.10;;;7.30;99.90;;;;;;5195725;28;20281;-50
2022/04/08 03:43:28;;;;;;;1.30;0.83;;;7.30;99.90;;;;;;5203572;28;20270;-53
2022/04/08 03:45:59;;;;;;;1.17;0.60;;;7.30;99.90;;;;;;5198493;28;20524;-50
2022/04/08 03:48:29;;;;;;;2.60;0.80;;;7.30;99.90;;;;;;5194540;28;20667;-50
2022/04/08 03:51:00;;;;;;;1.67;0.93;;;7.30;99.90;;;;;;5183307;28;20196;-53
2022/04/08 03:53:30;;;;;;;1.10;1.00;;;7.20;99.90;;;;;;5203697;28;20187;-50
2022/04/08 03:56:02;;;;;;;2.20;0.63;;;7.20;99.90;;;;;;5184662;28;20183;-50
2022/04/08 03:58:32;;;;;;;0.80;0.70;;;7.10;99.90;;;;;;5196168;28;20207;-50
2022/04/08 04:01:03;;;;;;;1.60;0.67;;;7.00;99.90;;;;;;5186699;28;20489;-50
2022/04/08 04:03:33;;;;;;;3.37;0.83;;;6.90;99.90;;;;;;5202173;28;20214;-50
2022/04/08 04:06:04;;;;;;;1.10;1.10;;;7.00;99.90;;;;;;5196166;28;20663;-51
2022/04/08 04:08:35;;;;;;;1.23;0.67;;;6.90;99.90;;;;;;5200056;28;20180;-50
2022/04/08 04:11:05;;;;;;;0.50;0.50;;;6.80;99.90;;;;;;5180773;28;20603;-49
2022/04/08 04:13:36;;;;;;;0.60;0.60;;;6.80;99.90;;;;;;5182377;28;20192;-52
2022/04/08 04:16:06;;;;;;;0.80;0.80;;;6.70;99.90;;;;;;5196861;28;20214;-49
2022/04/08 04:18:37;;;;;;;0.60;0.50;;;6.70;99.90;;;;;;5176218;28;20203;-49
2022/04/08 04:21:08;;;;;;;0.77;0.77;;;6.60;99.90;;;;;;5182857;28;20221;-49
2022/04/08 04:23:39;;;;;;;2.40;0.50;;;6.60;99.90;;;;;;5169089;28;20199;-50
2022/04/08 04:26:09;;;;;;;0.80;0.57;;;6.50;99.90;;;;;;5199036;28;20979;-49
2022/04/08 04:28:40;;;;;;;0.40;0.40;;;6.50;99.90;;;;;;5169100;28;20183;-50
2022/04/08 04:31:10;;;;;;;1.83;0.57;;;6.50;99.90;;;;;;5184324;28;20224;-50
2022/04/08 04:33:41;;;;;;;3.90;0.67;;;6.40;99.90;;;;;;5183248;28;20180;-49
2022/04/08 04:36:12;;;;;;;0.80;0.80;;;6.40;99.90;;;;;;5187816;28;20274;-50
2022/04/08 04:38:43;;;;;;;0.60;0.60;;;6.30;99.90;;;;;;5198840;28;20205;-50
2022/04/08 04:41:13;;;;;;;2.57;0.60;;;6.30;99.90;;;;;;5199055;28;20464;-51
2022/04/08 04:43:44;;;;;;;4.90;0.77;;;6.20;99.90;;;;;;5198434;28;20248;-49
2022/04/08 04:46:14;;;;;;;0.80;0.80;;;6.30;99.90;;;;;;5184985;28;20690;-50
2022/04/08 04:48:45;;;;;;;2.30;0.77;;;6.20;99.90;;;;;;5210216;28;20182;-50
2022/04/08 04:51:16;;;;;;;2.57;0.80;;;6.20;99.90;;;;;;5190922;28;20202;-49
2022/04/08 04:53:47;;;;;;;1.70;0.60;;;6.20;99.90;;;;;;5198746;28;20265;-50
2022/04/08 04:56:17;;;;;;;1.93;1.00;;;6.10;99.90;;;;;;5198804;28;20546;-51
2022/04/08 04:58:48;;;;;;;4.67;1.27;;;6.10;99.90;;;;;;5199417;28;20182;-50
2022/04/08 05:01:18;;;;;;;1.63;0.80;;;6.00;99.90;;;;;;5201348;28;20559;-52
2022/04/08 05:03:49;;;;;;;3.30;0.73;;;6.00;99.90;;;;;;5178151;28;20186;-50
2022/04/08 05:06:19;;;;;;;1.23;0.83;;;6.00;99.90;;;;;;5199517;28;20212;-51
2022/04/08 05:08:50;;;;;;;1.03;0.60;;;6.00;99.90;;;;;;5203148;28;20173;-50
2022/04/08 05:11:20;;;;;;;0.60;0.60;;;6.00;99.90;;;;;;5198308;28;20192;-49
2022/04/08 05:13:51;;;;;;;4.37;0.60;;;6.00;99.90;;;;;;5188581;28;20189;-50
2022/04/08 05:16:21;;;;;;;1.67;0.70;;;6.00;99.90;;;;;;5185148;28;20192;-51
2022/04/08 05:18:52;;;;;;;5.87;1.00;;;5.90;99.90;;;;;;5208162;28;20552;-51
2022/04/08 05:21:23;;;;;;;4.93;0.90;;;5.90;99.90;;;;;;5180762;28;20227;-49
2022/04/08 05:23:54;;;;;;;2.53;0.97;;;5.90;99.90;;;;;;5182057;28;20220;-50
2022/04/08 05:26:24;;;;;;;10.07;0.97;;;6.00;99.90;;;;;;5187596;28;20485;-50
2022/04/08 05:28:55;;;;;;;0.60;0.60;;;6.00;99.90;;;;;;5186867;28;20276;-50
2022/04/08 05:31:25;;;;;;;3.27;1.13;;;6.00;99.90;;;;;;5189691;28;20274;-52
2022/04/08 05:33:56;;;;;;;0.70;0.60;;;6.10;99.90;;;;;;5202179;28;20177;-51
2022/04/08 05:36:26;;;;;;;1.23;0.80;;;6.10;99.90;;;;;;5190253;28;20182;-50
2022/04/08 05:38:57;;;;;;;3.03;1.63;;;6.20;99.90;;;;;;5196553;28;20187;-51
2022/04/08 05:41:27;;;;;;;2.03;1.00;;;6.20;99.90;;;;;;5178531;28;20217;-50
2022/04/08 05:43:58;;;;;;;6.20;1.83;;;6.30;99.90;;;;;;5196290;28;20182;-52
2022/04/08 05:46:28;;;;;;;2.93;0.90;;;6.30;99.90;;;;;;5176287;28;20225;-50
2022/04/08 05:48:59;;;;;;;1.23;0.90;;;6.30;99.90;;;;;;5190637;28;20203;-51
2022/04/08 05:51:29;;;;;;;1.80;1.13;;;6.40;99.90;;;;;;5193214;28;20215;-51
2022/04/08 05:54:00;;;;;;;7.93;0.90;;;6.40;99.90;;;;;;5203190;28;20179;-50
2022/04/08 05:56:31;;;;;;;2.87;1.30;;;6.40;99.90;;;;;;5204974;28;20194;-51
2022/04/08 05:59:02;;;;;;;1.23;0.77;;;6.40;99.90;;;;;;5204026;28;20437;-51
2022/04/08 06:01:32;;;;;;;1.30;1.10;;;6.40;99.90;;;;;;5200322;28;20204;-51
2022/04/08 06:04:03;;;;;;;1.13;0.83;;;6.30;99.90;;;;;;5197978;28;20218;-51
2022/04/08 06:06:34;;;;;;;8.93;1.50;;;6.40;99.90;;;;;;5196400;28;20223;-51
2022/04/08 06:09:04;;;;;;;2.57;1.70;;;6.50;99.90;;;;;;5202405;28;20199;-51
2022/04/08 06:11:35;;;;;;;5.30;1.30;;;6.50;99.90;;;;;;5179714;28;20454;-53
2022/04/08 06:14:05;;;;;;;2.90;1.10;;;6.60;99.90;;;;;;5199378;28;20194;-51
2022/04/08 06:16:36;;;;;;;3.20;1.00;;;6.60;99.90;;;;;;5201284;28;20221;-52
2022/04/08 06:19:06;;;;;;;3.00;1.30;;;6.70;99.90;;;;;;5203803;28;20217;-52
2022/04/08 06:21:37;;;;;;;4.77;1.70;;;6.70;99.90;;;;;;5206830;28;20257;-51
2022/04/08 06:24:08;;;;;;;0.77;0.77;;;6.40;99.90;;;;;;5172707;28;20689;-53
2022/04/08 06:26:39;;;;;;;1.53;1.20;;;6.70;99.90;;;;;;5189518;28;20202;-52
2022/04/08 06:29:10;;;;;;;7.13;1.30;;;6.80;99.90;;;;;;5201901;28;20194;-52
2022/04/08 06:31:40;;;;;;;4.00;1.30;;;6.80;99.90;;;;;;5185392;28;20438;-51
2022/04/08 06:34:11;;;;;;;1.40;0.80;;;6.90;99.90;;;;;;5204723;28;20552;-51
2022/04/08 06:36:41;;;;;;;1.30;1.20;;;7.10;99.90;;;;;;5204537;28;20230;-52
2022/04/08 06:39:12;;;;;;;3.43;1.50;;;7.20;99.90;;;;;;5208069;28;20187;-51
2022/04/08 06:41:44;;;;;;;1.93;0.67;;;7.40;99.90;;;;;;5188128;28;20287;-53
2022/04/08 06:44:14;;;;;;;5.23;1.13;;;7.30;99.90;;;;;;5187602;28;20191;-52
2022/04/08 06:46:45;;;;;;;0.60;0.60;;;7.00;99.90;;;;;;5201899;28;20829;-50
2022/04/08 06:49:19;;;;;;;1.73;0.80;;;6.40;99.90;;;;;;5180445;28;20194;-52
2022/04/08 06:51:50;;;;;;;0.80;0.80;;;5.90;99.90;;;;;;5189941;28;20603;-51
2022/04/08 06:54:20;;;;;;;0.60;0.60;;;5.50;99.90;;;;;;5185043;28;20454;-49
2022/04/08 06:56:51;;;;;;;2.70;1.17;;;5.20;99.90;;;;;;5185028;28;20644;-49
2022/04/08 06:59:22;;;;;;;1.70;0.87;;;5.10;99.90;;;;;;5187133;28;20233;-51
2022/04/08 07:01:53;;;;;;;2.57;0.83;;;4.90;99.90;;;;;;5193871;28;20458;-49
2022/04/08 07:04:23;;;;;;;1.20;1.10;;;4.70;99.90;;;;;;5204993;28;20207;-50
2022/04/08 07:06:55;;;;;;;3.90;1.07;;;4.60;99.90;;;;;;5203347;28;20211;-50
2022/04/08 07:09:25;;;;;;;1.87;1.67;;;4.40;99.90;;;;;;5173626;28;20555;-49
2022/04/08 07:11:56;;;;;;;2.10;1.17;;;4.20;99.90;;;;;;5206931;28;20437;-50
2022/04/08 07:14:27;;;;;;;4.70;1.67;;;4.10;99.90;;;;;;5202724;28;20188;-49
2022/04/08 07:16:58;;;;;;;9.57;1.10;;;4.00;99.90;;;;;;5191623;28;20200;-49
2022/04/08 07:19:28;;;;;;;1.90;0.83;;;4.10;99.90;;;;;;5204094;28;20869;-51
2022/04/08 07:21:59;;;;;;;4.33;0.80;;;4.50;99.90;;;;;;5201901;28;20184;-49
2022/04/08 07:24:29;;;;;;;6.70;1.60;;;5.10;99.90;;;;;;5188392;28;20183;-50
2022/04/08 07:26:59;;;;;;;1.93;0.90;;;5.30;99.90;;;;;;5187803;28;20220;-51
2022/04/08 07:29:30;;;;;;;2.57;1.33;;;5.50;99.90;;;;;;5193283;28;20722;-49
2022/04/08 07:32:00;;;;;;;7.30;1.30;;;5.50;99.90;;;;;;5170684;28;20185;-50
2022/04/08 07:34:31;;;;;;;7.37;1.33;;;5.80;99.90;;;;;;5204844;28;20559;-50
2022/04/08 07:37:03;;;;;;;7.00;1.37;;;7.00;99.90;;;;;;5201467;28;20193;-50
2022/04/08 07:39:35;;;;;;;4.57;1.63;;;8.20;99.90;;;;;;5166131;28;20264;-49
2022/04/08 07:42:06;;;;;;;5.10;1.20;;;8.70;99.90;;;;;;5200359;28;20425;-51
2022/04/08 07:44:37;;;;;;;3.70;1.90;;;8.70;99.90;;;;;;5177663;28;20449;-51
2022/04/08 07:47:08;;;;;;;2.40;1.30;;;8.50;99.90;;;;;;5193732;28;20229;-51
2022/04/08 07:49:39;;;;;;;1.20;1.00;;;7.80;99.90;;;;;;5196353;28;21024;-51
2022/04/08 07:52:09;;;;;;;7.40;1.70;;;7.50;99.90;;;;;;5204080;28;20524;-51
2022/04/08 07:54:40;;;;;;;5.50;1.90;;;7.70;99.90;;;;;;5181715;28;20269;-50
2022/04/08 07:57:13;;;;;;;2.23;1.97;;;9.00;99.90;;;;;;5194975;28;20184;-50
2022/04/08 07:59:44;;;;;;;1.80;1.03;;;11.60;94.20;;;;;;5180525;28;20204;-50
2022/04/08 08:02:15;;;;;;;2.87;1.23;;;14.00;59.80;;;;;;5190534;28;20461;-49
2022/04/08 08:04:45;;;;;;;10.40;1.60;;;15.70;53.70;;;;;;5203247;28;20671;-50
2022/04/08 08:07:16;;;;;;;4.27;1.43;;;17.00;48.20;;;;;;5181527;28;20454;-48
2022/04/08 08:09:47;;;;;;;14.27;2.20;;;17.00;43.60;;;;;;5195831;28;20717;-51
2022/04/08 08:12:18;;;;;;;4.47;1.53;;;17.20;44.80;;;;;;5183460;28;20188;-52
2022/04/08 08:14:48;;;;;;;1.10;1.10;;;18.00;44.50;;;;;;5172232;28;20794;-50
2022/04/08 08:17:19;;;;;;;2.07;1.10;;;18.30;42.60;;;;;;5183658;28;20278;-52
2022/04/08 08:19:50;;;;;;;2.67;1.43;;;17.60;42.00;;;;;;5186004;28;20293;-50
2022/04/08 08:22:22;;;;;;;2.93;1.47;;;16.90;42.90;;;;;;5203648;28;20533;-50
2022/04/08 08:24:53;;;;;;;3.60;1.67;;;16.20;45.30;;;;;;5206685;28;20232;-51
2022/04/08 08:27:23;;;;;;;7.17;1.70;;;14.90;47.40;;;;;;5191837;28;20990;-50
2022/04/08 08:29:54;;;;;;;3.40;1.70;;;14.50;47.80;;;;;;5194641;28;20313;-52
2022/04/08 08:32:25;;;;;;;6.50;1.27;;;13.50;50.50;;;;;;5205860;28;20237;-52
2022/04/08 08:34:55;;;;;;;5.80;1.33;;;13.20;51.20;;;;;;5205066;28;20179;-51
2022/04/08 08:37:26;;;;;;;10.93;2.40;;;13.30;52.10;;;;;;5205445;28;20184;-51
2022/04/08 08:39:56;;;;;;;8.00;2.23;;;12.80;50.00;;;;;;5205447;28;20199;-51
2022/04/08 08:42:29;;;;;;;7.30;1.90;;;11.80;50.90;;;;;;5210606;28;20191;-51
2022/04/08 08:44:59;;;;;;;2.70;1.40;;;11.10;51.80;;;;;;5207434;28;20199;-50
2022/04/08 08:47:31;;;;;;;6.20;1.93;;;10.60;53.50;;;;;;5188525;28;20524;-51
2022/04/08 08:50:02;;;;;;;11.70;3.00;;;10.40;54.70;;;;;;5202835;28;20195;-51
2022/04/08 08:52:33;;;;;;;3.90;1.50;;;10.10;56.20;;;;;;5193302;28;20540;-50
2022/04/08 08:55:05;;;;;;;5.33;1.93;;;10.00;54.50;;;;;;5188363;28;20457;-52
2022/04/08 08:57:36;;;;;;;5.40;1.80;;;10.20;55.80;;;;;;5209538;28;20458;-50
2022/04/08 09:00:15;;;;;;;3.70;1.50;;;10.10;56.10;;;;;;5191872;28;20462;-53
2022/04/08 09:02:50;;;;;;;16.07;2.50;;;9.80;57.70;;;;;;5190131;28;20202;-51
2022/04/08 09:05:24;;;;;;;8.30;1.60;;;9.30;60.00;;;;;;5203451;28;20437;-53
2022/04/08 09:07:58;;;;;;;11.27;2.10;;;9.40;62.30;;;;;;5203837;28;20447;-51
2022/04/08 09:10:33;;;;;;;22.47;1.77;;;9.40;61.40;;;;;;5189463;28;20469;-56
2022/04/08 09:13:07;;;;;;;10.60;1.07;;;9.10;61.80;;;;;;5202537;28;20465;-50
2022/04/08 09:15:41;;;;;;;6.00;1.70;;;9.10;62.80;;;;;;5182327;28;20439;-53
2022/04/08 09:18:14;;;;;;;3.90;1.30;;;9.40;63.90;;;;;;5202547;28;20446;-51
2022/04/08 09:20:48;;;;;;;11.90;2.97;;;9.70;62.20;;;;;;5227346;23;21062;-50
2022/04/08 09:23:20;;;;;;;8.83;1.83;;;9.90;61.00;;;;;;5222586;28;20473;-48
2022/04/08 09:26:02;;;;;;;4.37;2.00;;;9.90;59.60;;;;;;5224722;28;20463;-47
2022/04/08 09:28:37;;;;;;;3.90;1.50;;;9.90;61.50;;;;;;5216553;28;20452;-49
2022/04/08 09:31:26;;;;;;;4.43;1.30;;;9.90;63.60;;;;;;5213696;28;20532;-49
2022/04/08 09:33:56;;;;;;;3.70;1.93;;;9.70;65.30;;;;;;5211711;28;20445;-49
2022/04/08 09:36:32;;;;;;;7.17;1.00;;;9.30;69.80;;;;;;5223635;28;20528;-50
2022/04/08 09:39:07;;;;;;;2.30;0.93;;;9.40;70.60;;;;;;5234840;28;20182;-48
2022/04/08 09:41:38;;;;;;;1.70;1.40;;;9.60;68.30;;;;;;5219169;28;20871;-49
2022/04/08 09:44:11;;;;;;;3.20;1.40;;;9.40;64.30;;;;;;5220977;28;20437;-49
2022/04/08 09:46:42;;;;;;;3.40;1.13;;;9.10;64.80;;;;;;5221429;28;20484;-49
2022/04/08 09:49:12;;;;;;;4.10;1.20;;;9.00;65.50;;;;;;5220009;28;20437;-49
2022/04/08 09:51:43;;;;;;;5.90;1.37;;;9.20;64.00;;;;;;5220311;28;20199;-50
2022/04/08 09:54:19;;;;;;;5.23;1.80;;;9.30;62.70;;;;;;5220862;28;20179;-53
2022/04/08 09:56:52;;;;;;;7.83;1.83;;;9.00;60.40;;;;;;5224755;28;20610;-48
2022/04/08 09:59:24;;;;;;;10.03;3.03;;;9.00;63.00;;;;;;5219735;28;20442;-49
2022/04/08 10:01:58;;;;;;;13.23;5.93;;;9.20;61.50;;;;;;5219174;28;20456;-49
2022/04/08 10:04:29;;;;;;;20.50;6.90;;;9.40;59.00;;;;;;5220373;28;21014;-48
2022/04/08 10:07:02;;;;;;;5.27;2.93;;;9.60;57.20;;;;;;5222277;28;20457;-49
2022/04/08 10:09:38;;;;;;;5.70;1.70;;;9.80;57.60;;;;;;5221310;28;20430;-50
2022/04/08 10:12:21;;;;;;;3.10;1.30;;;9.60;57.10;;;;;;5217271;28;20800;-49
2022/04/08 10:15:13;;;;;;;9.37;1.57;;;9.50;57.30;;;;;;5217406;28;20437;-50
2022/04/08 10:17:56;;;;;;;2.20;1.13;;;9.50;57.90;;;;;;5224765;28;20437;-48
2022/04/08 10:20:31;;;;;;;3.33;1.50;;;9.40;58.20;;;;;;5218869;28;20840;-48
2022/04/08 10:23:09;;;;;;;6.10;1.17;;;9.30;59.20;;;;;;5237646;28;20438;-49
2022/04/08 10:25:46;;;;;;;4.23;1.10;;;9.40;59.10;;;;;;5221669;28;20516;-48
2022/04/08 10:28:17;;;;;;;4.60;1.00;;;9.30;58.50;;;;;;5223310;28;20446;-48
2022/04/08 10:30:49;;;;;;;4.50;1.27;;;9.50;59.60;;;;;;5219000;28;20464;-48
2022/04/08 10:33:24;;;;;;;1.20;0.90;;;9.70;58.90;;;;;;5226168;28;20533;-48
2022/04/08 10:36:00;;;;;;;9.47;1.07;;;9.60;56.70;;;;;;5220873;28;20547;-47
2022/04/08 10:38:37;;;;;;;8.20;1.13;;;9.80;57.00;;;;;;5225271;28;20448;-49
2022/04/08 10:41:11;;;;;;;6.70;1.60;;;10.40;54.80;;;;;;5224001;28;20449;-50
2022/04/08 10:43:46;;;;;;;1.80;1.03;;;10.80;54.00;;;;;;5221067;28;20521;-48
2022/04/08 10:46:32;;;;;;;1.47;1.00;;;11.30;51.40;;;;;;5223447;28;20472;-49
2022/04/08 10:49:02;;;;;;;4.67;1.40;;;11.60;50.40;;;;;;5222406;28;20754;-48
2022/04/08 10:51:44;;;;;;;8.07;2.20;;;11.50;50.00;;;;;;5215147;28;20445;-51
2022/04/08 10:54:15;;;;;;;14.97;4.63;;;11.60;48.60;;;;;;5223791;28;20194;-48
2022/04/08 10:56:57;;;;;;;2.63;1.50;;;11.40;47.70;;;;;;5218925;28;20436;-49
2022/04/08 10:59:28;;;;;;;2.37;1.03;;;11.10;46.20;;;;;;5215218;28;20436;-48
2022/04/08 11:02:02;;;;;;;1.30;1.07;;;10.80;47.70;;;;;;5218721;28;20949;-50
2022/04/08 11:04:33;;;;;;;1.43;1.00;;;10.80;48.00;;;;;;5213373;28;20429;-49
2022/04/08 11:07:05;;;;;;;3.23;0.90;;;10.70;48.60;;;;;;5218319;28;21144;-50
2022/04/08 11:09:36;;;;;;;1.90;0.87;;;10.50;49.40;;;;;;5222186;28;20384;-51
2022/04/08 11:12:07;;;;;;;8.17;1.97;;;10.20;52.50;;;;;;5222087;28;20553;-50
2022/04/08 11:14:38;;;;;;;2.73;1.10;;;9.70;55.10;;;;;;5203910;28;20650;-51
2022/04/08 11:17:10;;;;;;;4.00;2.20;;;9.80;57.90;;;;;;5221524;28;20575;-51
2022/04/08 11:19:40;;;;;;;8.33;1.40;;;9.90;57.20;;;;;;5220108;28;20437;-49
2022/04/08 11:22:12;;;;;;;1.23;1.13;;;10.00;56.00;;;;;;5215806;28;20992;-49
2022/04/08 11:24:42;;;;;;;2.63;1.10;;;10.10;55.90;;;;;;5232672;28;20248;-48
2022/04/08 11:27:13;;;;;;;1.63;1.00;;;10.40;55.40;;;;;;5221719;28;20461;-49
2022/04/08 11:29:43;;;;;;;1.60;1.20;;;10.70;55.20;;;;;;5221861;28;20208;-50
2022/04/08 11:32:14;;;;;;;3.60;1.13;;;10.60;54.30;;;;;;5234491;28;20182;-48
2022/04/08 11:34:44;;;;;;;6.37;1.40;;;10.70;54.70;;;;;;5213333;28;20198;-50
2022/04/08 11:37:26;;;;;;;17.27;8.80;;;10.70;54.50;;;;;;5223916;28;20187;-50
2022/04/08 11:39:57;;;;;;;12.73;6.00;;;10.70;54.60;;;;;;5218930;28;20210;-48
2022/04/08 11:42:28;;;;;;;7.70;2.70;;;10.70;56.00;;;;;;5235584;28;20792;-50
2022/04/08 11:45:00;;;;;;;6.13;1.97;;;10.70;58.80;;;;;;5219317;28;20446;-49
2022/04/08 11:47:32;;;;;;;6.33;1.80;;;10.40;55.90;;;;;;5220549;28;20683;-50
2022/04/08 11:50:06;;;;;;;12.13;3.47;;;10.20;55.60;;;;;;5219362;28;20564;-49
2022/04/08 11:52:37;;;;;;;9.83;3.47;;;10.20;56.20;;;;;;5226249;28;20429;-49
2022/04/08 11:55:09;;;;;;;2.30;1.73;;;10.50;55.50;;;;;;5221124;28;20438;-49
2022/04/08 11:57:41;;;;;;;5.27;2.00;;;10.60;54.90;;;;;;5216492;28;20190;-51
2022/04/08 12:00:12;;;;;;;8.70;3.70;;;10.70;54.80;;;;;;5217343;28;20450;-47
2022/04/08 12:02:43;;;;;;;7.53;4.03;;;10.70;54.40;;;;;;5203771;28;20520;-49
2022/04/08 12:05:24;;;;;;;1.37;1.27;;;10.60;51.20;;;;;;5215619;28;20506;-48
2022/04/08 12:07:59;;;;;;;9.03;2.53;;;10.60;51.00;;;;;;5217238;28;20202;-49
2022/04/08 12:10:30;;;;;;;4.53;1.90;;;10.50;49.90;;;;;;5212741;28;20444;-48
2022/04/08 12:13:11;;;;;;;1.40;0.97;;;10.40;49.90;;;;;;5215409;28;20461;-50
2022/04/08 12:15:46;;;;;;;5.83;1.70;;;10.20;49.50;;;;;;5217744;28;20175;-49
2022/04/08 12:18:28;;;;;;;19.93;1.50;;;10.30;50.20;;;;;;5217310;28;20433;-49
2022/04/08 12:21:00;;;;;;;1.10;0.90;;;10.30;51.10;;;;;;5213887;28;20466;-50
2022/04/08 12:23:31;;;;;;;3.30;0.90;;;10.70;51.90;;;;;;5217861;28;20461;-50
2022/04/08 12:26:05;;;;;;;5.83;2.70;;;11.10;51.40;;;;;;5227796;28;20508;-49
2022/04/08 12:28:36;;;;;;;3.30;1.27;;;11.30;51.00;;;;;;5222912;28;20197;-50
2022/04/08 12:31:15;;;;;;;8.83;1.50;;;11.50;51.00;;;;;;5216245;28;20453;-50
2022/04/08 12:33:45;;;;;;;3.17;1.60;;;12.00;50.80;;;;;;5223615;28;20183;-50
2022/04/08 12:36:17;;;;;;;1.83;1.20;;;12.30;49.60;;;;;;5217192;28;20895;-49
2022/04/08 12:38:47;;;;;;;5.57;1.83;;;12.30;47.90;;;;;;5218079;28;20186;-51
2022/04/08 12:41:18;;;;;;;2.60;1.17;;;12.20;46.60;;;;;;5217117;28;20461;-49
2022/04/08 12:43:48;;;;;;;1.37;1.27;;;12.00;45.60;;;;;;5216886;28;20191;-48
2022/04/08 12:46:19;;;;;;;1.60;1.23;;;12.10;46.10;;;;;;5220277;28;20204;-50
2022/04/08 12:48:50;;;;;;;4.20;1.40;;;12.30;46.40;;;;;;5206390;28;20213;-49
2022/04/08 12:51:20;;;;;;;1.63;1.43;;;12.20;45.30;;;;;;5210471;28;20198;-48
2022/04/08 12:53:51;;;;;;;0.80;0.80;;;12.10;45.20;;;;;;5222559;28;20171;-49
2022/04/08 12:56:24;;;;;;;3.03;1.37;;;11.60;45.80;;;;;;5216970;28;20187;-50
2022/04/08 12:58:55;;;;;;;1.37;0.87;;;11.30;46.40;;;;;;5218500;28;20182;-48
2022/04/08 13:01:27;;;;;;;10.10;3.47;;;10.80;47.90;;;;;;5220199;28;20465;-48
2022/04/08 13:03:58;;;;;;;3.20;1.33;;;11.00;47.90;;;;;;5221557;28;20797;-50
2022/04/08 13:06:30;;;;;;;2.60;1.07;;;10.90;48.00;;;;;;5219440;28;20479;-50
2022/04/08 13:09:01;;;;;;;2.67;1.83;;;11.00;48.20;;;;;;5222433;28;20213;-50
2022/04/08 13:11:32;;;;;;;8.00;2.63;;;11.00;48.40;;;;;;5222847;28;20489;-48
2022/04/08 13:14:03;;;;;;;4.70;2.90;;;11.00;49.00;;;;;;5223739;28;20175;-50
2022/04/08 13:16:35;;;;;;;13.13;2.50;;;11.10;49.70;;;;;;5219928;28;20792;-49